Rechercher aéroport 
image banner adimage banner adimage banner ad
image banner ad

61L - Engine Co Nr 109

Situé à Los Angeles/Van Nuys, United States

ICAO - 61L, IATA -

Données fournies par Airmate  

Information générale

Coordonnées: N34°7'51" W118°29'26"
Élévation : 1375 feet MSL.
Variation magnétique : 14° East
Voir autres Aéroports à California

Données opérationnelles

Special qualification required
Heure actuelle UTC:
Heure actuelle locale:
Météo à : KVNY - Van Nuys ( 9 km )
METAR: KVNY 260851Z 16005KT 10SM OVC008 16/14 A3001 RMK AO2 SLP154 T01610139 51008
TAF: KVNY 260726Z 2607/2706 11005KT P6SM SKC FM260800 VRB03KT 3SM BR BKN008 FM261300 VRB03KT 5SM BR OVC011 FM261700 13004KT P6SM FEW010 FM262100 15008KT P6SM SKC FM270400 13004KT P6SM SKC
Voir NOTAMs / SUP AIP / TFR affectant cet aéroport [VIEW]
Fréquences de communication: [VIEW]

Pistes:

Coordonnées de l'aéroport

Adresse: Los Angeles/Van Nuys United States

Vue satellite de 61L